Time;durP1;ratioP1;P1;durP2;ratioP2;P2;SDS_P1;SDS_P2;PMS_P1;PMS_P2;Temp;Humidity;BMP_temperature;BMP_pressure;BME280_temperature;BME280_humidity;BME280_pressure;Samples;Min_cycle;Max_cycle;Signal;HPM_P1;HPM_P2
2022/06/22 00:01:32;;;;;;;2.92;2.50;;;24.50;99.90;;;;;;7391788;19;20239;-73
2022/06/22 00:04:00;;;;;;;4.78;2.78;;;24.50;99.90;;;;;;7391391;19;20206;-75
2022/06/22 00:06:42;;;;;;;4.45;2.58;;;24.50;99.90;;;;;;7394023;19;20135;-76
2022/06/22 00:09:22;;;;;;;3.10;2.63;;;24.40;99.90;;;;;;7386710;19;20166;-76
2022/06/22 00:11:48;;;;;;;3.30;2.55;;;24.30;99.90;;;;;;7387364;19;20145;-76
2022/06/22 00:14:18;;;;;;;4.70;3.10;;;24.30;99.90;;;;;;7387564;19;20139;-74
2022/06/22 00:16:53;;;;;;;4.57;3.10;;;24.40;99.90;;;;;;7388660;19;20489;-74
2022/06/22 00:19:29;;;;;;;4.10;3.25;;;24.30;99.90;;;;;;7387083;19;20161;-74
2022/06/22 00:21:55;;;;;;;5.03;3.13;;;24.20;99.90;;;;;;7389161;19;20154;-75
2022/06/22 00:24:24;;;;;;;4.25;2.65;;;24.30;99.90;;;;;;7388489;19;20147;-75
2022/06/22 00:27:39;;;;;;;4.38;3.20;;;24.30;99.90;;;;;;7394939;19;20127;-73
2022/06/22 00:30:13;;;;;;;3.58;2.88;;;24.10;99.90;;;;;;7392648;19;20586;-75
2022/06/22 00:32:51;;;;;;;5.13;3.05;;;23.90;99.90;;;;;;7395483;19;20221;-73
2022/06/22 00:35:47;;;;;;;3.30;3.00;;;23.70;99.90;;;;;;7394709;19;20625;-74
2022/06/22 00:38:35;;;;;;;3.72;3.00;;;23.80;99.90;;;;;;7396132;19;20165;-73
2022/06/22 00:41:14;;;;;;;3.70;2.75;;;23.90;99.90;;;;;;7393896;19;20255;-75
2022/06/22 00:43:40;;;;;;;3.03;2.65;;;24.00;99.90;;;;;;7395911;19;20134;-73
2022/06/22 00:46:21;;;;;;;4.03;3.13;;;24.00;99.90;;;;;;7394914;19;20222;-72
2022/06/22 00:48:51;;;;;;;3.00;2.70;;;24.10;99.90;;;;;;7394321;19;20278;-76
2022/06/22 00:51:22;;;;;;;2.85;2.55;;;24.20;99.90;;;;;;7390980;19;20150;-73
2022/06/22 00:53:57;;;;;;;3.65;2.67;;;24.10;99.90;;;;;;7395970;19;20646;-76
2022/06/22 00:56:46;;;;;;;2.90;2.60;;;24.10;99.90;;;;;;7393066;19;20492;-76
2022/06/22 00:59:53;;;;;;;4.55;3.10;;;23.80;99.90;;;;;;7394164;19;20306;-73
2022/06/22 01:02:40;;;;;;;6.38;2.85;;;23.80;99.90;;;;;;7392407;19;20240;-73
2022/06/22 01:05:14;;;;;;;3.22;2.92;;;23.90;99.90;;;;;;7394320;19;20495;-73
2022/06/22 01:07:55;;;;;;;6.68;3.45;;;23.90;99.90;;;;;;7394009;19;20167;-74
2022/06/22 01:10:28;;;;;;;4.68;2.97;;;24.00;99.90;;;;;;7394636;19;20146;-74
2022/06/22 01:13:00;;;;;;;5.30;3.50;;;24.10;99.90;;;;;;7399201;19;20131;-75
2022/06/22 01:15:35;;;;;;;3.78;3.00;;;24.20;99.90;;;;;;7392756;19;20601;-74
2022/06/22 01:18:11;;;;;;;5.50;3.30;;;24.30;99.90;;;;;;7391501;19;20170;-74
2022/06/22 01:20:56;;;;;;;4.70;2.97;;;24.20;99.90;;;;;;7393101;19;20137;-76
2022/06/22 01:23:39;;;;;;;4.80;3.20;;;24.10;99.90;;;;;;7390609;19;20146;-73
2022/06/22 01:26:24;;;;;;;5.60;3.60;;;24.10;99.90;;;;;;7396143;19;20686;-74
2022/06/22 01:28:58;;;;;;;4.53;2.90;;;24.00;99.90;;;;;;7395403;19;20248;-76
2022/06/22 01:31:24;;;;;;;3.30;3.00;;;24.00;99.90;;;;;;7392370;19;20137;-76
2022/06/22 01:33:52;;;;;;;3.40;3.10;;;24.20;99.90;;;;;;7398104;19;20144;-76
2022/06/22 01:36:26;;;;;;;3.97;3.00;;;24.20;99.90;;;;;;7391576;19;20485;-76
2022/06/22 01:38:52;;;;;;;4.15;3.30;;;24.20;99.90;;;;;;7390908;19;20145;-75
2022/06/22 01:41:37;;;;;;;5.45;3.35;;;24.30;99.90;;;;;;7394044;19;20142;-73
2022/06/22 01:44:15;;;;;;;3.28;2.92;;;24.20;99.90;;;;;;7390767;19;20138;-75
2022/06/22 01:46:40;;;;;;;4.00;2.80;;;24.00;99.90;;;;;;7394984;19;20613;-76
2022/06/22 01:49:11;;;;;;;4.25;3.05;;;24.00;99.90;;;;;;7391939;19;20207;-75
2022/06/22 01:51:43;;;;;;;5.07;3.10;;;23.90;99.90;;;;;;7392449;19;20610;-74
2022/06/22 01:54:32;;;;;;;3.35;3.00;;;23.90;99.90;;;;;;7391597;19;20138;-75
2022/06/22 01:57:10;;;;;;;3.63;3.03;;;23.80;99.90;;;;;;7392566;19;20123;-74
2022/06/22 01:59:48;;;;;;;3.75;3.20;;;23.60;99.90;;;;;;7390802;19;20146;-75
2022/06/22 02:02:31;;;;;;;3.53;3.22;;;23.50;99.90;;;;;;7390431;19;20138;-76
2022/06/22 02:05:19;;;;;;;6.95;3.65;;;23.50;99.90;;;;;;7392004;19;20808;-76
2022/06/22 02:07:58;;;;;;;4.78;3.28;;;23.60;99.90;;;;;;7389959;19;20160;-73
2022/06/22 02:10:34;;;;;;;4.82;3.38;;;23.50;99.90;;;;;;7390795;19;20138;-72
2022/06/22 02:13:18;;;;;;;3.78;3.38;;;23.50;99.90;;;;;;7391202;19;20141;-74
2022/06/22 02:15:56;;;;;;;4.18;3.53;;;23.70;99.90;;;;;;7391814;19;20131;-77
2022/06/22 02:18:30;;;;;;;4.97;3.30;;;23.70;99.90;;;;;;7392970;19;20606;-74
2022/06/22 02:21:00;;;;;;;4.30;3.70;;;23.90;99.90;;;;;;7393934;19;20133;-72
2022/06/22 02:23:30;;;;;;;5.93;4.07;;;24.00;99.90;;;;;;7391154;19;20147;-75
2022/06/22 02:26:00;;;;;;;4.68;3.30;;;24.00;99.90;;;;;;7394300;19;20130;-73
2022/06/22 02:28:26;;;;;;;3.97;3.25;;;24.10;99.90;;;;;;7392373;19;20574;-73
2022/06/22 02:30:52;;;;;;;5.32;4.00;;;24.10;99.90;;;;;;7389987;19;20142;-73
2022/06/22 02:33:19;;;;;;;5.68;3.53;;;24.10;99.90;;;;;;7391188;19;20142;-74
2022/06/22 02:35:45;;;;;;;3.83;3.45;;;23.70;99.90;;;;;;7394291;19;20595;-75
2022/06/22 02:38:13;;;;;;;4.20;3.50;;;23.80;99.90;;;;;;7390167;19;20135;-73
2022/06/22 02:46:18;;;;;;;5.28;3.97;;;24.00;99.90;;;;;;7391241;19;20134;-75
2022/06/22 02:48:50;;;;;;;5.90;3.83;;;23.70;99.90;;;;;;7389624;19;20183;-75
2022/06/22 02:51:32;;;;;;;5.07;3.60;;;23.70;99.90;;;;;;7390638;19;20145;-75
2022/06/22 02:54:02;;;;;;;5.30;3.97;;;23.40;99.90;;;;;;7393424;19;20146;-75
2022/06/22 02:56:35;;;;;;;5.10;3.70;;;23.40;99.90;;;;;;7390176;19;20139;-73
2022/06/22 02:59:00;;;;;;;4.70;3.85;;;23.40;99.90;;;;;;7391712;19;20562;-75
2022/06/22 03:01:31;;;;;;;6.13;4.03;;;23.70;99.90;;;;;;7391093;19;20143;-74
2022/06/22 03:04:06;;;;;;;4.88;3.97;;;23.80;99.90;;;;;;7390443;19;20170;-72
2022/06/22 03:06:36;;;;;;;6.88;4.18;;;23.90;99.90;;;;;;7391253;19;20134;-75
2022/06/22 03:09:05;;;;;;;4.35;3.88;;;23.80;99.90;;;;;;7391738;19;20217;-75
2022/06/22 03:11:35;;;;;;;4.40;4.00;;;23.90;99.90;;;;;;7389740;19;20163;-75
2022/06/22 03:14:14;;;;;;;6.65;4.13;;;23.90;99.90;;;;;;7391984;19;20148;-74
2022/06/22 03:16:44;;;;;;;4.75;3.40;;;23.80;99.90;;;;;;7390758;19;20209;-74
2022/06/22 03:19:17;;;;;;;4.38;3.58;;;23.70;99.90;;;;;;7392056;19;20662;-73
2022/06/22 03:21:43;;;;;;;4.75;3.45;;;23.60;99.90;;;;;;7387543;19;20146;-73
2022/06/22 03:24:13;;;;;;;4.93;3.80;;;23.60;99.90;;;;;;7388576;19;20163;-74
2022/06/22 03:26:43;;;;;;;4.53;3.25;;;23.60;99.90;;;;;;7391583;19;20149;-74
2022/06/22 03:29:17;;;;;;;4.28;3.80;;;23.40;99.90;;;;;;7390115;19;20141;-73
2022/06/22 03:31:50;;;;;;;6.75;3.80;;;23.50;99.90;;;;;;7391184;19;20176;-72
2022/06/22 03:34:24;;;;;;;3.95;3.55;;;23.50;99.90;;;;;;7387756;19;20183;-73
2022/06/22 03:36:58;;;;;;;4.20;3.80;;;23.60;99.90;;;;;;7390552;19;20161;-72
2022/06/22 03:39:28;;;;;;;5.00;4.00;;;23.60;99.90;;;;;;7390837;19;20742;-76
2022/06/22 03:42:13;;;;;;;6.63;3.92;;;23.60;99.90;;;;;;7391464;19;20473;-75
2022/06/22 03:44:45;;;;;;;7.10;4.45;;;23.60;99.90;;;;;;7391804;19;20778;-73
2022/06/22 03:47:21;;;;;;;4.28;3.88;;;23.50;99.90;;;;;;7389403;19;20168;-75
2022/06/22 03:50:02;;;;;;;4.70;3.65;;;23.40;99.90;;;;;;7386302;19;20153;-74
2022/06/22 03:53:09;;;;;;;5.03;3.85;;;23.10;99.90;;;;;;7391807;19;20639;-73
2022/06/22 03:55:38;;;;;;;4.88;4.20;;;23.20;99.90;;;;;;7386866;19;20206;-72
2022/06/22 03:58:07;;;;;;;5.85;4.55;;;23.30;99.90;;;;;;7386877;19;20134;-73
2022/06/22 04:00:35;;;;;;;5.22;4.10;;;23.50;99.90;;;;;;7392881;19;20157;-74
2022/06/22 04:03:05;;;;;;;5.32;4.18;;;23.70;99.90;;;;;;7394790;19;20190;-76
2022/06/22 04:05:44;;;;;;;8.18;4.15;;;23.70;99.90;;;;;;7395840;19;20142;-75
2022/06/22 04:08:19;;;;;;;6.18;4.68;;;23.60;99.90;;;;;;7399388;19;20607;-76
2022/06/22 04:11:00;;;;;;;6.13;4.13;;;23.60;99.90;;;;;;7395376;19;20141;-76
2022/06/22 04:13:41;;;;;;;4.75;4.10;;;23.60;99.90;;;;;;7397467;19;20142;-76
2022/06/22 04:16:17;;;;;;;6.50;4.35;;;23.60;99.90;;;;;;7394897;19;20627;-75
2022/06/22 04:18:56;;;;;;;6.88;4.88;;;23.60;99.90;;;;;;7392855;19;20145;-75
2022/06/22 04:21:38;;;;;;;5.35;4.40;;;23.70;99.90;;;;;;7394956;19;20145;-74
2022/06/22 04:24:13;;;;;;;6.68;4.70;;;23.60;99.90;;;;;;7394543;19;20158;-74
2022/06/22 04:26:50;;;;;;;6.35;5.22;;;23.60;99.90;;;;;;7397052;19;20141;-76
2022/06/22 04:29:30;;;;;;;6.70;4.10;;;23.50;99.90;;;;;;7396262;19;20503;-75
2022/06/22 04:32:24;;;;;;;7.75;5.03;;;23.50;99.90;;;;;;7394510;19;20153;-75
2022/06/22 04:34:56;;;;;;;5.68;3.92;;;23.50;99.90;;;;;;7394615;19;20614;-76
2022/06/22 04:37:27;;;;;;;6.00;3.80;;;23.60;99.90;;;;;;7394921;19;20491;-75
2022/06/22 04:40:20;;;;;;;4.07;3.55;;;23.50;99.90;;;;;;7394576;19;20198;-75
2022/06/22 04:42:46;;;;;;;4.88;3.90;;;23.50;99.90;;;;;;7394019;19;20135;-74
2022/06/22 04:45:30;;;;;;;4.97;3.90;;;23.50;99.90;;;;;;7394826;19;20146;-74
2022/06/22 04:48:01;;;;;;;5.50;4.35;;;23.40;99.90;;;;;;7395505;19;20618;-74
2022/06/22 04:50:27;;;;;;;7.57;4.35;;;23.50;99.90;;;;;;7394784;19;20615;-74
2022/06/22 04:52:55;;;;;;;5.15;4.53;;;23.60;99.90;;;;;;7394607;19;20131;-76
2022/06/22 04:55:25;;;;;;;6.25;4.68;;;23.60;99.90;;;;;;7397377;19;20142;-74
2022/06/22 04:57:57;;;;;;;9.13;4.60;;;23.60;99.90;;;;;;7393724;19;20173;-74
2022/06/22 05:00:26;;;;;;;8.02;4.68;;;23.60;99.90;;;;;;7394770;19;20221;-73
2022/06/22 05:03:00;;;;;;;5.57;4.40;;;23.50;99.90;;;;;;7391997;19;20173;-74
2022/06/22 05:05:30;;;;;;;6.05;4.60;;;23.60;99.90;;;;;;7393807;19;20154;-75
2022/06/22 05:08:09;;;;;;;5.72;4.20;;;23.60;99.90;;;;;;7392683;19;20181;-74
2022/06/22 05:10:41;;;;;;;5.53;4.15;;;23.50;99.90;;;;;;7392969;19;20149;-76
2022/06/22 05:13:23;;;;;;;5.85;4.43;;;23.50;99.90;;;;;;7396018;19;20198;-74
2022/06/22 05:15:54;;;;;;;11.13;4.32;;;23.80;99.90;;;;;;7394113;19;20142;-74
2022/06/22 05:18:24;;;;;;;6.93;3.90;;;23.60;99.90;;;;;;7393796;19;20628;-76
2022/06/22 05:21:05;;;;;;;9.25;4.18;;;23.50;99.90;;;;;;7392278;19;20151;-76
2022/06/22 05:23:32;;;;;;;6.30;4.43;;;23.60;99.90;;;;;;7391414;19;20169;-76
2022/06/22 05:26:03;;;;;;;8.00;4.03;;;23.70;99.90;;;;;;7395503;19;20478;-74
2022/06/22 05:28:39;;;;;;;9.77;4.70;;;23.80;99.90;;;;;;7392773;19;20139;-76
2022/06/22 05:31:23;;;;;;;6.47;4.72;;;23.80;99.90;;;;;;7391678;19;20139;-74
2022/06/22 05:33:52;;;;;;;8.43;5.03;;;23.80;99.90;;;;;;7391707;19;20578;-69
2022/06/22 05:36:22;;;;;;;7.75;4.82;;;23.70;99.90;;;;;;7390254;19;20151;-70
2022/06/22 05:38:52;;;;;;;5.75;4.53;;;23.50;99.90;;;;;;7393020;19;20905;-71
2022/06/22 05:41:25;;;;;;;7.90;5.25;;;23.60;99.90;;;;;;7390712;19;20131;-71
2022/06/22 05:43:50;;;;;;;6.30;4.63;;;23.80;99.90;;;;;;7394010;19;20590;-71
2022/06/22 05:46:17;;;;;;;6.75;4.85;;;23.90;99.90;;;;;;7391379;19;20147;-70
2022/06/22 05:48:49;;;;;;;9.50;4.88;;;24.00;99.90;;;;;;7393079;19;20517;-69
2022/06/22 05:51:45;;;;;;;7.57;5.00;;;24.10;99.90;;;;;;7389488;19;20163;-70
2022/06/22 05:54:17;;;;;;;6.22;4.90;;;24.10;99.90;;;;;;7394059;19;20131;-69
2022/06/22 05:56:54;;;;;;;7.55;4.85;;;24.10;99.90;;;;;;7390147;19;20220;-70
2022/06/22 05:59:37;;;;;;;6.75;4.68;;;23.90;99.90;;;;;;7392233;19;20134;-71
2022/06/22 06:02:27;;;;;;;6.07;4.80;;;23.90;99.90;;;;;;7391451;19;20150;-71
2022/06/22 06:05:05;;;;;;;9.05;4.72;;;23.90;99.90;;;;;;7391824;19;20589;-71
2022/06/22 06:07:40;;;;;;;5.00;4.57;;;23.90;99.90;;;;;;7393935;19;20166;-70
2022/06/22 06:10:16;;;;;;;6.45;5.03;;;23.80;99.90;;;;;;7390858;19;20145;-72
2022/06/22 06:12:51;;;;;;;6.75;4.43;;;23.90;99.90;;;;;;7392994;19;20133;-69
2022/06/22 06:15:17;;;;;;;7.38;4.90;;;24.00;99.90;;;;;;7391132;19;20162;-70
2022/06/22 06:17:48;;;;;;;7.35;4.65;;;24.00;99.90;;;;;;7390442;19;20146;-69
2022/06/22 06:20:28;;;;;;;6.32;4.18;;;24.00;99.90;;;;;;7390495;19;20226;-70
2022/06/22 06:23:14;;;;;;;5.60;4.60;;;24.00;99.90;;;;;;7391998;19;20490;-80
2022/06/22 06:29:03;;;;;;;8.85;4.35;;;23.90;99.90;;;;;;7393834;19;20134;-78
2022/06/22 06:31:57;;;;;;;5.38;3.97;;;24.00;99.90;;;;;;7391631;19;20151;-78
2022/06/22 06:34:29;;;;;;;7.07;4.40;;;24.10;99.90;;;;;;7393250;19;20137;-79
2022/06/22 06:37:03;;;;;;;7.18;4.50;;;24.00;99.90;;;;;;7392021;19;20130;-80
2022/06/22 06:39:34;;;;;;;6.50;4.75;;;23.90;99.90;;;;;;7398141;19;20159;-76
2022/06/22 06:42:04;;;;;;;7.55;4.32;;;24.20;99.90;;;;;;7392714;19;20133;-80
2022/06/22 06:44:36;;;;;;;5.25;4.53;;;24.20;99.90;;;;;;7392640;19;20135;-80
2022/06/22 06:47:06;;;;;;;5.70;4.05;;;24.30;99.90;;;;;;7392615;19;20581;-76
2022/06/22 06:49:54;;;;;;;10.77;4.63;;;24.40;99.90;;;;;;7390422;19;20127;-75
2022/06/22 06:52:36;;;;;;;5.63;4.03;;;24.40;99.90;;;;;;7390393;19;20605;-79
2022/06/22 06:55:12;;;;;;;5.78;4.18;;;24.30;99.90;;;;;;7391396;19;20150;-77
2022/06/22 06:57:50;;;;;;;5.68;4.00;;;24.30;99.90;;;;;;7391134;19;20165;-76
2022/06/22 07:00:16;;;;;;;7.80;4.28;;;24.30;99.90;;;;;;7391467;19;20154;-78
2022/06/22 07:02:43;;;;;;;9.32;4.78;;;24.20;99.90;;;;;;7389158;19;20197;-80
2022/06/22 07:05:18;;;;;;;6.40;4.22;;;24.20;99.90;;;;;;7393527;19;20160;-80
2022/06/22 07:08:10;;;;;;;5.90;4.18;;;24.20;99.90;;;;;;7395236;19;20638;-78
2022/06/22 07:10:43;;;;;;;5.28;3.97;;;24.20;99.90;;;;;;7391825;19;20727;-78
2022/06/22 07:13:37;;;;;;;6.35;4.35;;;24.10;99.90;;;;;;7391217;19;20138;-78
2022/06/22 07:16:12;;;;;;;4.85;3.72;;;24.10;99.90;;;;;;7394861;19;20138;-80
2022/06/22 07:18:47;;;;;;;6.75;4.50;;;24.00;99.90;;;;;;7401222;19;20147;-78
2022/06/22 07:21:37;;;;;;;7.57;3.97;;;24.00;99.90;;;;;;7393449;19;20488;-78
2022/06/22 07:24:06;;;;;;;4.65;4.13;;;23.90;99.90;;;;;;7393349;19;20274;-75
2022/06/22 07:27:30;;;;;;;8.52;4.28;;;23.90;99.90;;;;;;7391310;19;20158;-78
2022/06/22 07:30:13;;;;;;;6.63;4.43;;;23.80;99.90;;;;;;7390945;19;20197;-76
2022/06/22 07:32:40;;;;;;;6.32;4.43;;;23.70;99.90;;;;;;7387940;19;20238;-77
2022/06/22 07:35:34;;;;;;;7.55;4.60;;;23.60;99.90;;;;;;7392011;19;20497;-77
2022/06/22 07:38:16;;;;;;;9.70;4.35;;;23.50;99.90;;;;;;7399084;19;20612;-78
2022/06/22 07:41:18;;;;;;;6.50;4.82;;;23.50;99.90;;;;;;7398195;19;20134;-78
2022/06/22 07:43:30;;;;;;;10.02;4.60;;;23.50;99.90;;;;;;7397322;19;20162;-79
2022/06/22 07:45:58;;;;;;;6.22;4.65;;;23.40;99.90;;;;;;7398788;19;20146;-78
2022/06/22 07:48:25;;;;;;;6.60;5.07;;;23.40;99.90;;;;;;7396400;19;20154;-79
2022/06/22 07:50:55;;;;;;;10.68;5.18;;;23.30;99.90;;;;;;7396431;19;20302;-79
2022/06/22 07:53:29;;;;;;;6.90;4.40;;;23.30;99.90;;;;;;7395397;19;20480;-79
2022/06/22 07:56:16;;;;;;;5.88;4.82;;;23.30;99.90;;;;;;7402818;19;20201;-77
2022/06/22 07:58:47;;;;;;;5.50;4.30;;;23.30;99.90;;;;;;7399104;19;20138;-79
2022/06/22 08:01:18;;;;;;;5.57;4.43;;;23.20;99.90;;;;;;7401556;19;20131;-80
2022/06/22 08:03:49;;;;;;;8.68;5.40;;;23.30;99.90;;;;;;7395753;19;20185;-77
2022/06/22 08:06:24;;;;;;;4.70;4.18;;;23.40;99.90;;;;;;7399271;19;20151;-77
2022/06/22 08:08:59;;;;;;;9.50;4.75;;;23.50;99.90;;;;;;7399474;19;20130;-76
2022/06/22 08:11:35;;;;;;;5.75;4.78;;;23.50;99.90;;;;;;7395909;19;20173;-79
2022/06/22 08:14:14;;;;;;;7.30;4.38;;;23.70;99.90;;;;;;7396834;19;20150;-79
2022/06/22 08:16:51;;;;;;;8.77;6.25;;;23.60;99.90;;;;;;7399262;19;20146;-76
2022/06/22 08:19:21;;;;;;;6.32;5.15;;;23.40;99.90;;;;;;7397150;19;20158;-76
2022/06/22 08:21:53;;;;;;;6.20;5.00;;;23.60;99.90;;;;;;7395790;19;20669;-79
2022/06/22 08:24:20;;;;;;;7.55;4.90;;;23.60;99.90;;;;;;7395344;19;20640;-76
2022/06/22 08:26:49;;;;;;;5.75;4.93;;;23.70;99.90;;;;;;7396009;19;20135;-77
2022/06/22 08:29:18;;;;;;;5.57;4.28;;;23.80;99.90;;;;;;7397712;19;20139;-79
2022/06/22 08:32:06;;;;;;;9.95;6.10;;;23.70;99.90;;;;;;7394510;19;20150;-76
2022/06/22 08:34:42;;;;;;;7.72;4.90;;;23.70;99.90;;;;;;7397098;19;20157;-79
2022/06/22 08:37:31;;;;;;;7.93;4.38;;;23.80;99.90;;;;;;7411555;19;20153;-77
2022/06/22 08:40:14;;;;;;;8.10;5.22;;;23.80;99.90;;;;;;7396699;19;20213;-78
2022/06/22 08:42:55;;;;;;;7.15;4.70;;;23.80;99.90;;;;;;7406025;19;20159;-78
2022/06/22 08:45:58;;;;;;;4.88;4.32;;;23.80;99.90;;;;;;7396028;19;20449;-77
2022/06/22 08:48:51;;;;;;;8.60;4.65;;;23.70;99.90;;;;;;7394817;19;20150;-76
2022/06/22 08:51:36;;;;;;;6.78;4.80;;;23.80;99.90;;;;;;7402427;19;20147;-78
2022/06/22 08:54:20;;;;;;;13.93;7.90;;;23.70;99.90;;;;;;7397165;19;20146;-78
2022/06/22 08:57:03;;;;;;;15.98;14.10;;;23.60;99.90;;;;;;7394125;19;20143;-79
2022/06/22 08:59:43;;;;;;;9.65;7.03;;;23.50;99.90;;;;;;7397359;19;20235;-80
2022/06/22 09:02:14;;;;;;;9.02;5.78;;;23.70;99.90;;;;;;7394044;19;20604;-76
2022/06/22 09:05:02;;;;;;;8.90;5.18;;;23.80;99.90;;;;;;7390915;19;20605;-76
2022/06/22 09:07:38;;;;;;;9.40;5.30;;;23.90;99.90;;;;;;7394621;19;20158;-76
2022/06/22 09:10:29;;;;;;;10.93;5.13;;;24.10;99.90;;;;;;7392367;19;20155;-79
2022/06/22 09:13:28;;;;;;;9.30;4.80;;;24.10;99.90;;;;;;7396596;19;20167;-77
2022/06/22 09:15:54;;;;;;;9.00;4.70;;;24.10;99.90;;;;;;7393461;19;20177;-77
2022/06/22 09:18:41;;;;;;;11.50;5.13;;;24.20;99.90;;;;;;7394936;19;20150;-78
2022/06/22 09:21:48;;;;;;;7.40;4.72;;;24.30;99.90;;;;;;7395309;19;20171;-76
2022/06/22 09:24:21;;;;;;;9.65;4.43;;;24.30;99.90;;;;;;7396655;19;20131;-77
2022/06/22 09:27:15;;;;;;;9.73;7.78;;;24.40;99.90;;;;;;7396403;19;20206;-77
2022/06/22 09:30:10;;;;;;;8.45;5.82;;;24.20;99.90;;;;;;7399948;19;20138;-77
2022/06/22 09:33:03;;;;;;;10.25;5.70;;;24.20;99.90;;;;;;7394409;19;20188;-75
2022/06/22 09:35:46;;;;;;;10.10;6.18;;;24.30;99.90;;;;;;7400313;19;20165;-76
2022/06/22 09:38:30;;;;;;;7.72;4.53;;;24.30;99.90;;;;;;7394536;19;20218;-78
2022/06/22 09:41:13;;;;;;;5.10;4.40;;;24.30;99.90;;;;;;7393658;19;20490;-76
2022/06/22 09:43:48;;;;;;;12.68;5.10;;;24.50;99.90;;;;;;7392534;19;20173;-75
2022/06/22 09:46:26;;;;;;;10.18;5.25;;;24.40;99.90;;;;;;7391708;19;20176;-76
2022/06/22 09:49:12;;;;;;;13.50;4.85;;;24.50;99.90;;;;;;7393230;19;20142;-76
2022/06/22 09:52:15;;;;;;;9.13;5.47;;;24.30;99.90;;;;;;7392529;19;20158;-76
2022/06/22 09:58:05;;;;;;;12.40;7.10;;;24.30;99.90;;;;;;7392397;19;20138;-76
2022/06/22 10:01:08;;;;;;;9.23;4.90;;;24.40;99.90;;;;;;7396106;19;20645;-79
2022/06/22 10:03:52;;;;;;;6.30;4.50;;;24.40;99.90;;;;;;7389584;19;20181;-76
2022/06/22 10:06:55;;;;;;;8.38;4.50;;;24.30;99.90;;;;;;7391524;19;20143;-76
2022/06/22 10:09:36;;;;;;;11.45;4.63;;;24.30;99.90;;;;;;7393848;19;20749;-78
2022/06/22 10:12:09;;;;;;;8.05;4.53;;;24.30;99.90;;;;;;7390505;19;20134;-76
2022/06/22 10:14:53;;;;;;;8.05;4.43;;;24.20;99.90;;;;;;7408227;19;20198;-79
2022/06/22 10:17:44;;;;;;;9.30;5.05;;;24.20;99.90;;;;;;7392168;19;20190;-76
2022/06/22 10:20:29;;;;;;;6.60;4.70;;;24.20;99.90;;;;;;7427765;19;20474;-79
2022/06/22 10:23:08;;;;;;;5.97;4.85;;;24.20;99.90;;;;;;7429499;19;20282;-79
2022/06/22 10:25:49;;;;;;;10.48;5.07;;;24.20;99.90;;;;;;7429455;19;20245;-79
2022/06/22 10:28:30;;;;;;;6.30;4.20;;;24.20;99.90;;;;;;7427327;19;20154;-80
2022/06/22 10:31:17;;;;;;;9.20;5.05;;;24.20;99.90;;;;;;7425937;19;20209;-78
2022/06/22 10:33:43;;;;;;;7.15;4.90;;;24.20;99.90;;;;;;7426088;19;20134;-77
2022/06/22 10:36:30;;;;;;;6.25;4.78;;;24.20;99.90;;;;;;7427685;19;20522;-77
2022/06/22 10:39:11;;;;;;;6.03;4.50;;;24.20;99.90;;;;;;7425468;19;20615;-78
2022/06/22 10:47:57;;;;;;;7.57;4.82;;;24.10;99.90;;;;;;7428230;19;20761;-78
2022/06/22 10:50:41;;;;;;;7.85;5.20;;;24.10;99.90;;;;;;7427007;19;20134;-78
2022/06/22 10:53:38;;;;;;;7.18;5.20;;;24.10;99.90;;;;;;7427936;19;20136;-78
2022/06/22 10:56:22;;;;;;;12.75;8.65;;;24.00;99.90;;;;;;7431675;19;20617;-77
2022/06/22 10:59:12;;;;;;;14.00;11.65;;;23.60;99.90;;;;;;7426489;19;20165;-78
2022/06/22 11:02:00;;;;;;;7.35;5.80;;;23.60;99.90;;;;;;7428205;19;20135;-77
2022/06/22 11:04:53;;;;;;;6.60;4.88;;;23.50;99.90;;;;;;7423923;19;20591;-78
2022/06/22 11:07:47;;;;;;;7.05;4.20;;;23.30;99.90;;;;;;7427548;19;20142;-77
2022/06/22 11:10:28;;;;;;;8.32;4.97;;;23.40;99.90;;;;;;7425885;19;20142;-76
2022/06/22 11:13:03;;;;;;;5.75;5.07;;;23.50;99.90;;;;;;7428254;19;20141;-78
2022/06/22 11:16:03;;;;;;;11.05;5.72;;;23.50;99.90;;;;;;7425702;19;20928;-79
2022/06/22 11:18:45;;;;;;;7.00;5.72;;;23.50;99.90;;;;;;7425251;19;20165;-76
2022/06/22 11:21:15;;;;;;;8.68;5.65;;;23.40;99.90;;;;;;7424265;19;20157;-76
2022/06/22 11:23:53;;;;;;;9.23;5.57;;;23.30;99.90;;;;;;7425917;19;20599;-77
2022/06/22 11:33:10;;;;;;;7.88;5.28;;;23.50;99.90;;;;;;7393948;19;20146;-76
2022/06/22 11:36:01;;;;;;;5.53;5.00;;;23.50;99.90;;;;;;7395897;19;20147;-76
2022/06/22 11:38:55;;;;;;;6.45;5.13;;;23.50;99.90;;;;;;7398056;19;20605;-77
2022/06/22 11:41:26;;;;;;;7.90;4.90;;;23.50;99.90;;;;;;7401935;19;20146;-77
2022/06/22 11:44:29;;;;;;;7.32;5.97;;;23.50;99.90;;;;;;7395773;19;20139;-77
2022/06/22 11:47:00;;;;;;;9.18;6.30;;;23.50;99.90;;;;;;7396193;19;20883;-76
2022/06/22 11:49:35;;;;;;;7.65;4.70;;;23.60;99.90;;;;;;7398763;19;20616;-77
2022/06/22 11:52:34;;;;;;;15.57;12.27;;;23.50;99.90;;;;;;7396869;19;20134;-77
2022/06/22 11:55:20;;;;;;;7.32;5.30;;;23.60;99.90;;;;;;7394369;19;20174;-77
2022/06/22 11:58:09;;;;;;;7.40;6.60;;;23.50;99.90;;;;;;7393626;19;20525;-76
2022/06/22 12:00:54;;;;;;;6.97;4.68;;;23.50;99.90;;;;;;7396806;19;20142;-76
2022/06/22 12:03:45;;;;;;;9.07;5.05;;;23.50;99.90;;;;;;7395069;19;20181;-77
2022/06/22 12:06:39;;;;;;;5.32;4.82;;;23.60;99.90;;;;;;7393049;19;20135;-77
2022/06/22 12:09:29;;;;;;;8.05;5.15;;;23.60;99.90;;;;;;7393354;19;20226;-76
2022/06/22 12:12:13;;;;;;;7.10;4.57;;;23.60;99.90;;;;;;7394980;19;20131;-76
2022/06/22 12:15:05;;;;;;;6.20;5.60;;;23.40;99.90;;;;;;7397066;19;20135;-76
2022/06/22 12:17:34;;;;;;;7.30;5.47;;;23.50;99.90;;;;;;7393803;19;20150;-76
2022/06/22 12:20:43;;;;;;;6.18;5.53;;;23.60;99.90;;;;;;7392021;19;20158;-77
2022/06/22 12:23:24;;;;;;;8.43;5.97;;;23.70;99.90;;;;;;7398627;19;20138;-77
2022/06/22 12:26:12;;;;;;;10.38;5.70;;;23.80;99.90;;;;;;7397295;19;20142;-76
2022/06/22 12:28:59;;;;;;;8.13;5.47;;;23.90;99.90;;;;;;7393544;19;20484;-77
2022/06/22 12:31:43;;;;;;;8.13;5.82;;;23.80;99.90;;;;;;7394238;19;20149;-76
2022/06/22 12:34:37;;;;;;;6.68;5.78;;;23.80;99.90;;;;;;7394558;19;20150;-77
2022/06/22 12:37:16;;;;;;;7.53;5.05;;;23.80;99.90;;;;;;7394101;19;20131;-77
2022/06/22 12:39:55;;;;;;;8.18;4.97;;;23.90;99.90;;;;;;7390779;19;20613;-77
2022/06/22 12:42:24;;;;;;;7.20;4.20;;;23.90;99.90;;;;;;7391199;19;20122;-77
2022/06/22 12:45:02;;;;;;;10.00;4.32;;;23.80;99.90;;;;;;7392743;19;20142;-75
2022/06/22 12:47:46;;;;;;;6.20;4.50;;;23.60;99.90;;;;;;7392940;19;20139;-76
2022/06/22 12:50:44;;;;;;;8.98;4.70;;;23.70;99.90;;;;;;7394661;19;20135;-77
2022/06/22 12:53:24;;;;;;;8.10;5.63;;;23.50;99.90;;;;;;7391144;19;20146;-77
2022/06/22 12:55:56;;;;;;;9.70;6.38;;;23.60;99.90;;;;;;7395674;19;20156;-78
2022/06/22 12:58:45;;;;;;;9.05;7.10;;;23.80;99.90;;;;;;7393030;19;20502;-76
2022/06/22 13:01:11;;;;;;;9.85;6.25;;;23.90;99.90;;;;;;7394368;19;20142;-78
2022/06/22 13:03:53;;;;;;;8.68;5.95;;;24.00;99.90;;;;;;7392406;19;20157;-78
2022/06/22 13:06:20;;;;;;;13.02;7.03;;;24.10;99.90;;;;;;7401487;19;20375;-76
2022/06/22 13:08:47;;;;;;;7.97;6.15;;;24.00;99.90;;;;;;7390685;19;20586;-77
2022/06/22 13:11:24;;;;;;;12.63;6.65;;;23.70;99.90;;;;;;7395941;19;20173;-78
2022/06/22 13:14:12;;;;;;;7.90;6.65;;;23.70;99.90;;;;;;7394703;19;20138;-77
2022/06/22 13:17:00;;;;;;;8.00;6.10;;;23.70;99.90;;;;;;7396184;19;20158;-78
2022/06/22 13:19:49;;;;;;;8.07;6.05;;;23.80;99.90;;;;;;7390840;19;20226;-78
2022/06/22 13:22:30;;;;;;;11.60;6.13;;;23.60;99.90;;;;;;7389303;19;20154;-78
2022/06/22 13:25:35;;;;;;;9.45;5.95;;;23.70;99.90;;;;;;7393886;19;20142;-77
2022/06/22 13:28:25;;;;;;;7.88;6.25;;;23.70;99.90;;;;;;7390324;19;20171;-78
2022/06/22 13:31:08;;;;;;;9.73;5.80;;;23.70;99.90;;;;;;7391856;19;20141;-76
2022/06/22 13:33:42;;;;;;;8.90;5.03;;;23.80;99.90;;;;;;7392070;19;20206;-77
2022/06/22 13:36:18;;;;;;;10.13;4.90;;;23.80;99.90;;;;;;7392437;19;20150;-77
2022/06/22 13:39:02;;;;;;;7.43;3.90;;;23.70;99.90;;;;;;7392045;19;20181;-77
2022/06/22 13:41:31;;;;;;;9.40;4.07;;;23.70;99.90;;;;;;7392406;19;20163;-77
2022/06/22 13:44:27;;;;;;;10.32;4.03;;;23.60;99.90;;;;;;7391244;19;20165;-77
2022/06/22 13:46:53;;;;;;;7.15;3.60;;;23.60;99.90;;;;;;7392513;19;20155;-77
2022/06/22 13:49:24;;;;;;;6.03;3.72;;;23.70;99.90;;;;;;7394363;19;20178;-79
2022/06/22 13:51:57;;;;;;;8.88;4.32;;;23.70;99.90;;;;;;7397855;19;20138;-77
2022/06/22 13:54:41;;;;;;;9.43;4.05;;;23.80;99.90;;;;;;7393715;19;20165;-77
2022/06/22 13:57:12;;;;;;;7.00;3.85;;;24.00;99.90;;;;;;7392364;19;20146;-77
2022/06/22 13:59:56;;;;;;;7.72;3.42;;;24.10;99.90;;;;;;7390739;19;20601;-79
2022/06/22 14:02:39;;;;;;;6.43;3.40;;;24.10;99.90;;;;;;7393627;19;20732;-76
2022/06/22 14:05:16;;;;;;;6.97;3.60;;;24.10;99.90;;;;;;7390351;19;20143;-78
2022/06/22 14:07:41;;;;;;;6.95;3.70;;;24.30;99.90;;;;;;7390232;19;20138;-77
2022/06/22 14:10:36;;;;;;;7.40;3.90;;;24.10;99.90;;;;;;7392142;19;20136;-77